Latest Weather Observations for Albion Park

IDN60801

Issued at 6:03 am EST Thursday 19 September 2019 (issued every 10 minutes, with the page automatically refreshed every 10 minutes)

About weather observations | Map of weather stations | Latest weather observations for NSW | Other Formats
Station Details ID: 068241 Name: WOLLONGONG AIRPORT Lat: -34.56 Lon: 150.79 Height: 8.0 m
Data from the previous 72 hours. | See also: Recent months at Albion Park
Date/Time
EST
Temp
°C
App
Temp
°C
Dew
Point
°C
Rel
Hum
%
Delta-T
°C
Wind Press
QNH
hPa
Press
MSL
hPa
Rain since
9am
mm
Dir  Spd
km/h
Gust
km/h
Spd
kts
Gust
kts
19/06:00am 13.4 14.1 13.4 100 0.0 W 2 7 1 4 1026.7 1026.7 11.2
19/05:58am 13.3 14.3 13.3 100 0.0 CALM 0 0 0 0 1026.7 1026.7 11.2
19/05:50am 13.3 14.0 13.3 100 0.0 W 2 6 1 3 1026.6 1026.6 11.0
19/05:42am 13.4 14.1 13.4 100 0.0 WSW 2 7 1 4 1026.5 1026.5 11.0
19/05:30am 13.3 14.0 13.3 100 0.0 WSW 2 6 1 3 1026.4 1026.4 11.0
19/05:26am 13.2 13.8 13.2 100 0.0 WSW 2 6 1 3 1026.4 1026.4 11.0
19/05:00am 13.3 13.0 13.3 100 0.0 W 7 9 4 5 1026.1 1026.1 10.8
19/04:55am 13.3 13.2 13.3 100 0.0 WNW 6 7 3 4 1026.1 1026.1 10.8
19/04:54am 13.3 13.2 13.3 100 0.0 WNW 6 7 3 4 1026.1 1026.1 10.8
19/04:30am 13.3 13.2 13.3 100 0.0 WNW 6 7 3 4 1025.9 1025.9 10.8
19/04:00am 13.0 13.2 13.0 100 0.0 SW 4 6 2 3 1025.8 1025.8 10.8
19/03:30am 13.2 13.1 13.2 100 0.0 WSW 6 9 3 5 1025.6 1025.6 10.8
19/03:20am 13.2 14.1 13.0 99 0.1 CALM 0 0 0 0 1025.6 1025.6 10.8
19/03:12am 13.0 13.1 12.8 99 0.1 SW 4 7 2 4 1025.6 1025.6 10.8
19/03:03am 13.0 12.7 12.8 99 0.1 SSW 6 9 3 5 1025.4 1025.4 10.8
19/03:00am 13.1 13.3 12.9 99 0.1 SSE 4 9 2 5 1025.5 1025.5 10.8
19/02:45am 13.2 12.8 13.0 99 0.1 N 7 11 4 6 1025.5 1025.5 10.4
19/02:30am 12.9 13.1 12.9 100 0.0 WSW 4 9 2 5 1025.5 1025.5 10.2
19/02:00am 12.1 11.6 11.9 99 0.1 SW 6 7 3 4 1025.6 1025.6 10.2
19/01:54am 11.9 11.3 11.7 99 0.1 SW 6 7 3 4 1025.6 1025.6 10.2
19/01:30am 11.5 10.6 11.3 99 0.1 SW 7 9 4 5 1025.6 1025.6 10.2
19/01:00am 11.7 11.0 11.5 99 0.1 SW 6 9 3 5 1026.0 1026.0 10.2
19/12:30am 12.4 12.3 12.1 98 0.2 SW 4 9 2 5 1026.5 1026.5 10.2
19/12:11am 12.8 12.2 12.3 97 0.3 WSW 7 9 4 5 1026.5 1026.5 10.2
19/12:00am 12.6 12.1 12.1 97 0.3 WSW 6 7 3 4 1026.5 1026.5 10.2
 
Date/Time
EST
Temp
°C
App
Temp
°C
Dew
Point
°C
Rel
Hum
%
Delta-T
°C
Wind Press
QNH
hPa
Press
MSL
hPa
Rain since
9am
mm
Dir  Spd
km/h
Gust
km/h
Spd
kts
Gust
kts
18/11:54pm 12.8 12.7 12.2 96 0.3 WSW 4 7 2 4 1026.5 1026.5 10.2
18/11:30pm 13.5 14.0 12.9 96 0.3 SW 2 6 1 3 1026.5 1026.5 10.2
18/11:09pm 13.5 12.3 12.9 96 0.3 WSW 11 15 6 8 1026.5 1026.5 10.2
18/11:00pm 13.3 11.3 12.7 96 0.3 WSW 15 19 8 10 1026.6 1026.6 10.2
18/10:30pm 13.3 11.7 12.8 97 0.3 W 13 17 7 9 1026.7 1026.7 10.2
18/10:00pm 13.6 13.8 13.0 96 0.3 SW 4 9 2 5 1026.8 1026.8 9.8
18/09:30pm 13.7 12.4 12.6 93 0.6 WSW 11 15 6 8 1026.9 1026.9 9.8
18/09:00pm 13.4 11.8 12.8 96 0.3 WSW 13 15 7 8 1026.9 1026.9 9.8
18/08:30pm 13.3 11.4 13.0 98 0.2 WSW 15 17 8 9 1026.9 1026.9 9.8
18/08:23pm 13.2 11.3 13.0 99 0.1 WSW 15 19 8 10 1026.9 1026.9 9.6
18/08:00pm 13.3 11.7 12.8 97 0.3 WSW 13 17 7 9 1027.0 1027.0 8.8
18/07:53pm 13.4 11.8 12.8 96 0.3 WSW 13 17 7 9 1027.0 1027.0 8.2
18/07:44pm 13.6 12.5 13.0 96 0.3 WSW 11 15 6 8 1026.9 1026.9 7.6
18/07:32pm 13.8 12.9 12.5 92 0.7 SW 9 13 5 7 1026.8 1026.8 7.6
18/07:30pm 13.8 12.9 12.7 93 0.6 SW 9 13 5 7 1026.8 1026.8 7.6
18/07:00pm 13.7 12.1 12.9 95 0.4 WSW 13 15 7 8 1026.6 1026.6 7.4
18/06:34pm 13.7 13.0 13.1 96 0.3 SW 9 13 5 7 1026.7 1026.7 7.0
18/06:30pm 13.7 13.0 13.2 97 0.3 SW 9 15 5 8 1026.6 1026.6 7.0
18/06:21pm 13.8 12.6 12.9 94 0.5 SSW 11 17 6 9 1026.6 1026.6 7.0
18/06:00pm 14.0 12.1 12.9 93 0.6 SW 15 19 8 10 1026.4 1026.4 6.8
18/05:49pm 13.9 12.0 13.1 95 0.4 SSW 15 20 8 11 1026.4 1026.4 6.8
18/05:30pm 13.7 11.9 13.2 97 0.3 SSW 15 17 8 9 1026.4 1026.4 6.6
18/05:25pm 13.7 12.2 13.1 96 0.3 SSW 13 17 7 9 1026.3 1026.3 6.4
18/05:00pm 14.0 12.6 13.4 96 0.3 S 13 19 7 10 1026.2 1026.2 5.4
18/04:56pm 14.0 12.5 13.2 95 0.4 S 13 19 7 10 1026.1 1026.1 5.4
18/04:53pm 14.1 12.2 13.1 94 0.6 S 15 19 8 10 1026.2 1026.2 5.4
18/04:30pm 14.2 12.9 13.7 97 0.3 SSW 13 19 7 10 1026.0 1026.0 5.2
18/04:00pm 14.3 12.4 14.1 99 0.1 S 17 24 9 13 1026.0 1026.0 4.8
18/03:30pm 14.1 11.5 13.9 99 0.1 S 20 28 11 15 1025.8 1025.8 4.4
18/03:00pm 14.1 11.1 13.8 98 0.2 S 22 33 12 18 1025.9 1025.9 3.6
18/02:30pm 14.3 11.7 13.8 97 0.3 S 20 30 11 16 1026.0 1026.0 3.2
18/02:27pm 14.2 11.6 13.9 98 0.2 S 20 30 11 16 1026.0 1026.0 3.0
18/02:11pm 14.0 10.5 13.5 97 0.3 S 24 35 13 19 1026.1 1026.1 2.8
18/02:00pm 14.1 10.3 13.6 97 0.3 S 26 35 14 19 1026.2 1026.2 2.8
18/01:30pm 14.3 11.4 14.1 99 0.1 S 22 30 12 16 1026.4 1026.4 2.4
18/01:00pm 14.2 11.3 14.0 99 0.1 S 22 30 12 16 1026.7 1026.7 1.8
18/12:30pm 13.9 10.4 13.4 97 0.3 S 24 39 13 21 1027.0 1027.0 1.0
18/12:25pm 14.2 11.2 13.7 97 0.3 S 22 39 12 21 1027.0 1027.0 1.0
18/12:00pm 14.0 11.3 13.4 96 0.3 S 20 33 11 18 1027.1 1027.1 0.6
18/11:30am 14.0 11.3 13.4 96 0.3 S 20 32 11 17 1027.4 1027.4 0.4
18/11:00am 13.2 9.3 12.1 93 0.6 S 24 33 13 18 1027.8 1027.8 0.4
18/10:47am 13.7 10.4 11.6 87 1.1 SSE 20 30 11 16 1027.9 1027.9 0.0
18/10:30am 14.0 11.2 11.3 84 1.4 S 17 28 9 15 1027.9 1027.9 0.0
18/10:00am 13.7 10.9 11.4 86 1.2 S 17 24 9 13 1027.9 1027.9 0.0
18/09:30am 13.4 11.1 11.6 89 1.0 S 15 20 8 11 1028.1 1028.1 0.0
18/09:00am 13.2 10.3 11.1 87 1.1 S 17 20 9 11 1027.9 1027.9 24.6
18/08:30am 12.8 9.9 11.0 89 0.9 SSW 17 20 9 11 1028.0 1028.0 24.6
18/08:00am 12.5 10.0 10.9 90 0.8 S 15 20 8 11 1028.0 1028.0 24.6
18/07:30am 12.2 8.9 10.8 91 0.7 SSW 19 28 10 15 1027.6 1027.6 24.6
18/07:15am 12.2 8.6 10.6 90 0.8 SSW 20 26 11 14 1027.5 1027.5 24.6
18/07:04am 12.1 9.4 10.5 90 0.8 S 15 24 8 13 1027.5 1027.5 24.6
18/07:00am 12.1 9.4 10.3 89 0.9 S 15 24 8 13 1027.4 1027.4 24.6
18/06:30am 12.3 8.4 10.9 91 0.7 S 22 30 12 16 1027.0 1027.0 24.4
18/06:00am 11.8 8.5 11.0 95 0.4 S 19 24 10 13 1027.0 1027.0 24.4
18/05:30am 11.5 7.9 10.7 95 0.4 S 20 26 11 14 1026.7 1026.7 24.4
18/05:00am 11.1 8.1 10.5 96 0.3 S 17 22 9 12 1026.8 1026.8 24.2
18/04:54am 11.1 8.1 10.6 97 0.3 S 17 22 9 12 1026.8 1026.8 24.2
18/04:30am 11.2 8.7 10.9 98 0.2 S 15 20 8 11 1026.6 1026.6 24.0
18/04:00am 11.0 8.7 10.4 96 0.3 S 13 19 7 10 1026.3 1026.3 23.4
18/03:41am 11.1 7.4 10.2 94 0.5 S 20 26 11 14 1026.2 1026.2 23.0
18/03:31am 11.3 7.1 9.9 91 0.7 S 22 28 12 15 1026.1 1026.1 23.0
18/03:30am 11.3 7.2 10.0 92 0.7 S 22 28 12 15 1026.1 1026.1 23.0
18/03:15am 11.3 8.2 10.4 94 0.5 S 17 24 9 13 1026.1 1026.1 22.8
18/03:09am 11.2 8.5 10.3 94 0.5 S 15 20 8 11 1026.0 1026.0 22.8
18/03:00am 11.2 8.0 10.1 93 0.6 S 17 22 9 12 1026.0 1026.0 22.8
18/02:51am 11.3 7.7 9.7 90 0.8 S 19 28 10 15 1025.9 1025.9 22.6
18/02:30am 12.0 8.1 9.6 85 1.2 S 20 28 11 15 1025.9 1025.9 22.6
18/02:00am 13.1 8.9 8.2 72 2.4 S 20 32 11 17 1025.7 1025.7 22.6
18/01:30am 12.6 8.9 7.9 73 2.3 S 17 24 9 13 1025.8 1025.8 22.6
18/01:00am 12.5 8.3 7.6 72 2.4 S 19 26 10 14 1026.2 1026.2 22.6
18/12:30am 12.9 8.6 8.0 72 2.4 S 20 30 11 16 1026.4 1026.4 22.6
18/12:00am 13.0 9.5 7.2 68 2.8 SSE 15 20 8 11 1026.5 1026.5 22.6
 
Date/Time
EST
Temp
°C
App
Temp
°C
Dew
Point
°C
Rel
Hum
%
Delta-T
°C
Wind Press
QNH
hPa
Press
MSL
hPa
Rain since
9am
mm
Dir  Spd
km/h
Gust
km/h
Spd
kts
Gust
kts
17/11:30pm 13.4 9.5 7.0 65 3.1 SSE 17 24 9 13 1026.5 1026.5 22.6
17/11:00pm 13.1 8.7 6.5 64 3.1 S 19 28 10 15 1026.7 1026.7 22.6
17/10:30pm 14.1 9.7 7.2 63 3.4 SSE 20 32 11 17 1026.7 1026.7 22.6
17/10:00pm 14.4 9.7 7.7 64 3.3 SE 22 41 12 22 1026.7 1026.7 22.6
17/09:30pm 14.5 10.2 8.0 65 3.2 SE 20 39 11 21 1026.7 1026.7 22.6
17/09:00pm 14.3 9.8 6.9 61 3.6 SSE 20 30 11 16 1026.7 1026.7 22.6
17/08:30pm 14.5 8.9 7.3 62 3.5 SSE 26 43 14 23 1026.6 1026.6 22.6
17/08:00pm 14.3 9.5 7.4 63 3.4 SE 22 33 12 18 1026.4 1026.4 22.6
17/07:30pm 14.6 8.9 6.9 60 3.8 SE 26 50 14 27 1026.3 1026.3 22.6
17/07:01pm 14.4 8.6 7.9 65 3.2 SSE 28 46 15 25 1025.4 1025.4 22.6
17/07:00pm 14.4 9.0 8.1 66 3.1 SSE 26 46 14 25 1025.4 1025.4 22.6
17/06:55pm 14.5 8.8 8.5 67 3.0 SE 28 46 15 25 1025.3 1025.3 22.6
17/06:30pm 14.3 9.2 9.1 71 2.6 SE 26 43 14 23 1025.1 1025.1 22.6
17/06:00pm 14.3 10.0 9.3 72 2.5 SE 22 37 12 20 1024.6 1024.6 22.6
17/05:30pm 13.9 9.7 9.7 76 2.2 SE 22 39 12 21 1024.2 1024.2 22.6
17/05:00pm 13.2 9.6 10.7 85 1.3 SSE 20 37 11 20 1023.9 1023.9 22.4
17/04:34pm 12.8 9.3 11.0 89 0.9 SSE 20 35 11 19 1023.8 1023.8 21.6
17/04:30pm 12.8 9.3 11.0 89 0.9 SSE 20 35 11 19 1023.7 1023.7 21.4
17/04:11pm 12.8 9.5 11.7 93 0.6 SSE 20 30 11 16 1023.4 1023.4 20.4
17/04:00pm 12.6 9.4 11.8 95 0.4 SSE 20 33 11 18 1023.4 1023.4 19.6
17/03:57pm 12.5 9.3 11.9 96 0.3 SSE 20 32 11 17 1023.3 1023.3 19.6
17/03:46pm 12.4 8.8 11.8 96 0.3 SSE 22 32 12 17 1023.3 1023.3 19.0
17/03:30pm 12.5 9.3 12.0 97 0.3 SSE 20 32 11 17 1023.2 1023.2 17.6
17/03:00pm 12.6 9.2 12.4 99 0.1 SSE 22 35 12 19 1022.8 1022.8 15.4
17/02:30pm 12.8 9.4 12.5 98 0.2 SSE 22 37 12 20 1022.8 1022.8 11.4
17/02:21pm 12.9 9.8 12.3 96 0.3 SSE 20 32 11 17 1022.8 1022.8 10.0
17/02:15pm 13.1 10.1 12.5 96 0.3 SSE 20 28 11 15 1022.7 1022.7 9.8
17/02:11pm 13.2 10.2 12.6 96 0.3 SSE 20 35 11 19 1022.7 1022.7 9.4
17/02:00pm 13.2 10.4 12.7 97 0.3 SSE 19 43 10 23 1022.6 1022.6 9.2
17/01:30pm 12.9 9.9 12.6 98 0.2 SSE 20 28 11 15 1022.6 1022.6 8.6
17/01:21pm 12.9 10.0 12.4 97 0.3 SE 19 32 10 17 1022.6 1022.6 8.2
17/01:00pm 12.1 9.8 11.9 99 0.1 SSE 15 20 8 11 1022.7 1022.7 7.0
17/12:46pm 11.7 9.3 11.5 99 0.1 S 15 20 8 11 1022.7 1022.7 6.0
17/12:40pm 11.7 8.9 11.5 99 0.1 SSE 17 24 9 13 1022.7 1022.7 5.4
17/12:30pm 11.5 8.3 11.3 99 0.1 S 19 26 10 14 1022.8 1022.8 4.8
17/12:16pm 11.4 8.1 10.9 97 0.3 S 19 24 10 13 1023.1 1023.1 3.6
17/12:10pm 11.4 8.4 10.8 96 0.3 S 17 20 9 11 1023.1 1023.1 3.2
17/12:01pm 11.4 8.8 10.6 95 0.4 SSW 15 20 8 11 1023.1 1023.1 2.6
17/12:00pm 11.4 8.8 10.6 95 0.4 SSW 15 20 8 11 1023.1 1023.1 2.6
17/11:33am 11.2 8.5 10.4 95 0.4 SW 15 20 8 11 1023.5 1023.5 1.6
17/11:30am 11.3 8.6 10.5 95 0.4 SSW 15 20 8 11 1023.6 1023.6 1.4
17/11:16am 11.5 8.9 10.6 94 0.5 SSW 15 24 8 13 1023.6 1023.6 1.2
17/11:10am 11.5 9.7 10.7 95 0.4 SSW 11 17 6 9 1023.5 1023.5 1.0
17/11:00am 11.3 9.4 10.5 95 0.4 SSW 11 15 6 8 1023.5 1023.5 0.8
17/10:47am 11.4 8.6 10.1 92 0.7 SSW 15 17 8 9 1023.5 1023.5 0.4
17/10:45am 11.3 8.5 9.9 91 0.7 SSW 15 19 8 10 1023.5 1023.5 0.4
17/10:30am 11.6 8.9 10.2 91 0.7 S 15 22 8 12 1023.3 1023.3 0.4
17/10:00am 11.1 8.7 9.9 92 0.6 S 13 22 7 12 1023.6 1023.6 0.2
17/09:30am 10.8 8.7 9.6 92 0.6 WSW 11 13 6 7 1023.8 1023.8 0.2
17/09:00am 10.3 8.5 9.5 95 0.4 WSW 9 13 5 7 1023.8 1023.8 11.8
17/08:30am 9.5 7.0 8.3 92 0.6 WSW 11 15 6 8 1024.1 1024.1 11.8
17/08:00am 9.2 5.8 7.8 91 0.7 W 15 19 8 10 1024.1 1024.1 11.6
17/07:30am 9.3 6.7 7.9 91 0.7 WSW 11 17 6 9 1024.1 1024.1 11.4
17/07:00am 9.3 6.3 7.9 91 0.7 SSW 13 19 7 10 1023.6 1023.6 11.0
17/06:30am 8.9 6.2 7.5 91 0.7 SW 11 17 6 9 1023.1 1023.1 10.8
17/06:00am 8.2 5.2 7.6 96 0.3 WSW 13 15 7 8 1022.8 1022.8 10.2
17/05:30am 8.2 5.9 7.6 96 0.3 W 9 11 5 6 1022.5 1022.5 9.8
17/05:00am 8.1 5.4 7.3 95 0.4 W 11 13 6 7 1022.5 1022.5 9.4
17/04:30am 8.1 5.3 7.0 93 0.5 W 11 13 6 7 1022.4 1022.4 8.8
17/04:00am 8.3 5.2 7.1 92 0.6 WSW 13 17 7 9 1022.6 1022.6 7.8
17/03:30am 8.5 5.4 7.3 92 0.6 SW 13 19 7 10 1022.5 1022.5 6.8
17/03:00am 8.6 5.5 7.1 90 0.7 SW 13 19 7 10 1022.6 1022.6 5.8
17/02:30am 8.5 5.0 7.0 90 0.7 SSW 15 20 8 11 1022.6 1022.6 4.8
17/02:00am 8.7 6.3 7.0 89 0.8 SW 9 17 5 9 1023.1 1023.1 4.0
17/01:30am 8.7 5.2 7.2 90 0.7 SSW 15 20 8 11 1023.0 1023.0 3.2
17/01:00am 9.2 5.7 7.2 87 0.9 SSW 15 26 8 14 1023.2 1023.2 2.2
17/12:30am 9.1 5.1 6.7 85 1.1 SSW 17 30 9 16 1023.4 1023.4 1.6
17/12:00am 9.2 4.8 7.2 87 0.9 SSW 20 28 11 15 1023.3 1023.3 1.4
 
Date/Time
EST
Temp
°C
App
Temp
°C
Dew
Point
°C
Rel
Hum
%
Delta-T
°C
Wind Press
QNH
hPa
Press
MSL
hPa
Rain since
9am
mm
Dir  Spd
km/h
Gust
km/h
Spd
kts
Gust
kts
16/11:30pm 9.5 5.8 8.1 91 0.7 S 17 26 9 14 1023.3 1023.3 0.8
16/11:00pm 10.0 6.1 8.6 91 0.7 S 19 32 10 17 1022.8 1022.8 0.2
16/10:30pm 10.5 6.0 8.6 88 0.9 S 22 37 12 20 1022.6 1022.6 0.0
16/10:10pm 10.9 6.7 8.3 84 1.3 S 20 30 11 16 1023.2 1023.2 0.0
16/10:00pm 10.9 6.5 9.0 88 0.9 S 22 39 12 21 1023.0 1023.0 0.0
16/09:56pm 10.9 6.2 9.2 89 0.8 SSE 24 39 13 21 1022.9 1022.9 0.0
16/09:30pm 11.2 7.0 9.6 90 0.8 SSE 22 33 12 18 1021.8 1021.8 0.0
16/09:00pm 11.6 9.9 9.7 88 1.0 SSE 9 19 5 10 1022.4 1022.4 0.0
16/08:44pm 11.6 8.8 9.9 89 0.9 SSE 15 26 8 14 1022.3 1022.3 0.0
16/08:30pm 11.4 7.7 10.3 93 0.6 S 20 32 11 17 1022.1 1022.1 0.0
16/08:21pm 11.4 7.4 10.5 94 0.5 S 22 35 12 19 1021.7 1021.7 0.0
16/08:03pm 11.8 8.3 10.9 94 0.5 SSE 20 32 11 17 1021.1 1021.1 0.0
16/08:00pm 11.9 8.4 11.0 94 0.5 SSE 20 32 11 17 1021.1 1021.1 0.0
16/07:30pm 12.6 9.4 11.3 92 0.7 SSE 19 30 10 16 1021.6 1021.6 0.0
16/07:00pm 13.1 10.4 11.8 92 0.7 S 17 26 9 14 1020.6 1020.6 0.0
16/06:42pm 13.2 10.5 11.8 91 0.7 SSE 17 32 9 17 1020.9 1020.9 0.0
16/06:30pm 13.4 10.7 11.6 89 1.0 S 17 33 9 18 1019.5 1019.5 0.0
16/06:00pm 13.8 10.3 11.0 83 1.5 SSE 20 26 11 14 1019.3 1019.3 0.0
16/05:30pm 14.7 10.8 10.7 77 2.1 S 22 33 12 18 1019.9 1019.9 0.0
16/05:00pm 15.2 10.8 10.4 73 2.5 S 24 30 13 16 1019.0 1019.0 0.0
16/04:52pm 15.2 11.6 10.4 73 2.5 SSE 20 32 11 17 1018.8 1018.8 0.0
16/04:33pm 15.4 11.2 11.0 75 2.3 SSE 24 39 13 21 1018.0 1018.0 0.0
16/04:30pm 15.5 11.4 11.3 76 2.3 SSE 24 35 13 19 1018.1 1018.1 0.0
16/04:00pm 15.5 10.9 10.9 74 2.4 S 26 39 14 21 1017.6 1017.6 0.0
16/03:30pm 15.8 11.2 11.2 74 2.5 SSE 26 41 14 22 1017.2 1017.2 0.0
16/03:23pm 15.9 10.7 11.5 75 2.4 SSE 30 48 16 26 1016.9 1016.9 0.0
16/03:00pm 16.1 10.8 11.3 73 2.6 SSE 30 44 16 24 1016.5 1016.5 0.0
16/02:30pm 16.5 10.8 11.9 74 2.5 SSE 33 46 18 25 1016.0 1016.0 0.0
16/02:00pm 17.2 11.6 12.1 72 2.8 SSE 33 54 18 29 1015.4 1015.4 0.0
16/01:33pm 18.5 12.9 12.0 66 3.6 SSE 33 54 18 29 1015.1 1015.1 0.0
16/01:30pm 19.0 13.6 12.3 65 3.7 SSE 32 48 17 26 1014.9 1014.9 0.0
16/01:00pm 19.4 14.2 12.7 65 3.8 SSE 32 46 17 25 1014.6 1014.6 0.0
16/12:30pm 19.7 13.7 12.2 62 4.2 SSE 35 50 19 27 1014.2 1014.2 0.0
16/12:21pm 20.8 16.7 8.8 46 6.3 SE 20 44 11 24 1014.2 1014.2 0.0
16/12:00pm 23.4 20.5 1.7 24 10.2 ENE 6 9 3 5 1013.7 1013.7 0.0
16/11:30am 23.5 20.8 0.6 22 10.5 SSW 4 7 2 4 1013.9 1013.9 0.0
16/11:00am 22.7 19.2 1.1 24 10.0 NE 9 11 5 6 1013.8 1013.8 0.0
16/10:30am 22.9 18.6 0.7 23 10.2 ENE 13 15 7 8 1013.8 1013.8 0.0
16/10:00am 22.4 18.4 0.3 23 10.0 S 11 13 6 7 1014.0 1014.0 0.0
16/09:30am 22.6 17.8 -2.9 18 10.9 N 13 17 7 9 1013.9 1013.9 0.0
16/09:00am 21.9 15.9 -2.7 19 10.5 N 19 20 10 11 1014.0 1014.0 0.0
16/08:30am 21.9 16.7 -2.7 19 10.5 NNW 15 20 8 11 1014.4 1014.4 0.0
16/08:00am 19.9 15.4 -0.1 26 8.8 N 13 15 7 8 1014.3 1014.3 0.0
16/07:30am 21.6 16.6 -4.5 17 10.7 NNW 13 19 7 10 1014.5 1014.5 0.0
16/07:00am 20.3 14.9 -1.5 23 9.4 NNW 17 19 9 10 1014.3 1014.3 0.0
16/06:30am 16.4 12.7 4.4 45 5.6 NW 13 17 7 9 1014.2 1014.2 0.0

Other formats

Comma delimited format used in spreadsheet applications
http://www.bom.gov.au/fwo/IDN60801/IDN60801.95748.axf

JavaScript Object Notation format (JSON) in row-major order
http://www.bom.gov.au/fwo/IDN60801/IDN60801.95748.json

Data quality

Most of these data are generated automatically and are frequently updated. Quality checks on data are not normally performed. It is possible for incorrect values to appear. Refer to information at About Latest Weather Observations and please check the disclaimer before using these data.